sensor_id;sensor_type;location;lat;lon;timestamp;P1;durP1;ratioP1;P2;durP2;ratioP2
30466;SDS011;17258;52.560;13.046;2022-10-16T00:01:39;0.70;;;0.70;;
30466;SDS011;17258;52.560;13.046;2022-10-16T00:11:39;0.70;;;0.70;;
30466;SDS011;17258;52.560;13.046;2022-10-16T00:21:40;0.50;;;0.50;;
30466;SDS011;17258;52.560;13.046;2022-10-16T00:31:42;1.98;;;0.70;;
30466;SDS011;17258;52.560;13.046;2022-10-16T00:41:42;0.70;;;0.70;;
30466;SDS011;17258;52.560;13.046;2022-10-16T00:51:45;1.60;;;0.80;;
30466;SDS011;17258;52.560;13.046;2022-10-16T01:01:49;0.73;;;0.63;;
30466;SDS011;17258;52.560;13.046;2022-10-16T01:11:56;0.50;;;0.50;;
30466;SDS011;17258;52.560;13.046;2022-10-16T01:22:06;1.58;;;0.63;;
30466;SDS011;17258;52.560;13.046;2022-10-16T01:32:11;0.50;;;0.50;;
30466;SDS011;17258;52.560;13.046;2022-10-16T01:42:34;0.43;;;0.43;;
30466;SDS011;17258;52.560;13.046;2022-10-16T01:52:40;0.57;;;0.57;;
30466;SDS011;17258;52.560;13.046;2022-10-16T02:02:46;0.47;;;0.47;;
30466;SDS011;17258;52.560;13.046;2022-10-16T02:12:51;0.50;;;0.50;;
30466;SDS011;17258;52.560;13.046;2022-10-16T02:23:37;0.50;;;0.50;;
30466;SDS011;17258;52.560;13.046;2022-10-16T02:33:49;0.40;;;0.40;;
30466;SDS011;17258;52.560;13.046;2022-10-16T02:43:51;0.40;;;0.40;;
30466;SDS011;17258;52.560;13.046;2022-10-16T02:53:52;0.53;;;0.47;;
30466;SDS011;17258;52.560;13.046;2022-10-16T03:03:53;0.47;;;0.43;;
30466;SDS011;17258;52.560;13.046;2022-10-16T03:13:53;0.55;;;0.55;;
30466;SDS011;17258;52.560;13.046;2022-10-16T03:23:54;0.50;;;0.50;;
30466;SDS011;17258;52.560;13.046;2022-10-16T03:33:55;2.50;;;0.87;;
30466;SDS011;17258;52.560;13.046;2022-10-16T03:43:56;0.38;;;0.38;;
30466;SDS011;17258;52.560;13.046;2022-10-16T03:53:59;0.50;;;0.50;;
30466;SDS011;17258;52.560;13.046;2022-10-16T04:03:59;0.70;;;0.70;;
30466;SDS011;17258;52.560;13.046;2022-10-16T04:14:00;0.70;;;0.70;;
30466;SDS011;17258;52.560;13.046;2022-10-16T04:24:01;0.70;;;0.60;;
30466;SDS011;17258;52.560;13.046;2022-10-16T04:34:01;0.70;;;0.70;;
30466;SDS011;17258;52.560;13.046;2022-10-16T04:44:02;0.50;;;0.50;;
30466;SDS011;17258;52.560;13.046;2022-10-16T04:54:03;0.50;;;0.50;;
30466;SDS011;17258;52.560;13.046;2022-10-16T05:04:03;0.50;;;0.50;;
30466;SDS011;17258;52.560;13.046;2022-10-16T05:14:04;0.60;;;0.60;;
30466;SDS011;17258;52.560;13.046;2022-10-16T05:24:05;0.50;;;0.50;;
30466;SDS011;17258;52.560;13.046;2022-10-16T05:34:05;0.68;;;0.68;;
30466;SDS011;17258;52.560;13.046;2022-10-16T05:44:06;1.93;;;0.90;;
30466;SDS011;17258;52.560;13.046;2022-10-16T05:54:07;1.00;;;0.90;;
30466;SDS011;17258;52.560;13.046;2022-10-16T06:04:08;0.70;;;0.70;;
30466;SDS011;17258;52.560;13.046;2022-10-16T06:14:09;0.98;;;0.63;;
30466;SDS011;17258;52.560;13.046;2022-10-16T06:24:10;0.75;;;0.75;;
30466;SDS011;17258;52.560;13.046;2022-10-16T06:34:11;0.60;;;0.60;;
30466;SDS011;17258;52.560;13.046;2022-10-16T06:44:11;0.60;;;0.60;;
30466;SDS011;17258;52.560;13.046;2022-10-16T06:54:12;0.70;;;0.70;;
30466;SDS011;17258;52.560;13.046;2022-10-16T07:04:15;0.70;;;0.70;;
30466;SDS011;17258;52.560;13.046;2022-10-16T07:14:17;1.00;;;0.90;;
30466;SDS011;17258;52.560;13.046;2022-10-16T07:24:20;0.63;;;0.63;;
30466;SDS011;17258;52.560;13.046;2022-10-16T07:34:20;0.67;;;0.67;;
30466;SDS011;17258;52.560;13.046;2022-10-16T07:44:21;0.55;;;0.55;;
30466;SDS011;17258;52.560;13.046;2022-10-16T07:54:22;0.87;;;0.73;;
30466;SDS011;17258;52.560;13.046;2022-10-16T08:04:23;0.70;;;0.70;;
30466;SDS011;17258;52.560;13.046;2022-10-16T08:14:23;0.70;;;0.70;;
30466;SDS011;17258;52.560;13.046;2022-10-16T08:24:24;0.63;;;0.63;;
30466;SDS011;17258;52.560;13.046;2022-10-16T08:34:26;0.63;;;0.63;;
30466;SDS011;17258;52.560;13.046;2022-10-16T08:54:51;1.05;;;1.05;;
30466;SDS011;17258;52.560;13.046;2022-10-16T09:15:22;1.30;;;0.60;;
30466;SDS011;17258;52.560;13.046;2022-10-16T09:25:35;0.70;;;0.70;;
30466;SDS011;17258;52.560;13.046;2022-10-16T09:35:39;2.15;;;0.77;;
30466;SDS011;17258;52.560;13.046;2022-10-16T09:45:52;0.70;;;0.68;;
30466;SDS011;17258;52.560;13.046;2022-10-16T09:55:55;1.20;;;1.10;;
30466;SDS011;17258;52.560;13.046;2022-10-16T10:05:56;0.80;;;0.80;;
30466;SDS011;17258;52.560;13.046;2022-10-16T10:15:56;0.60;;;0.60;;
30466;SDS011;17258;52.560;13.046;2022-10-16T10:26:06;0.80;;;0.80;;
30466;SDS011;17258;52.560;13.046;2022-10-16T10:36:37;0.50;;;0.50;;
30466;SDS011;17258;52.560;13.046;2022-10-16T10:57:00;0.50;;;0.50;;
30466;SDS011;17258;52.560;13.046;2022-10-16T11:07:09;0.47;;;0.47;;
30466;SDS011;17258;52.560;13.046;2022-10-16T11:27:40;0.75;;;0.75;;
30466;SDS011;17258;52.560;13.046;2022-10-16T11:37:47;0.70;;;0.70;;
30466;SDS011;17258;52.560;13.046;2022-10-16T11:47:51;0.60;;;0.60;;
30466;SDS011;17258;52.560;13.046;2022-10-16T11:58:02;7.50;;;0.73;;
30466;SDS011;17258;52.560;13.046;2022-10-16T12:08:10;0.60;;;0.60;;
30466;SDS011;17258;52.560;13.046;2022-10-16T12:18:23;4.18;;;0.73;;
30466;SDS011;17258;52.560;13.046;2022-10-16T12:28:28;0.95;;;0.60;;
30466;SDS011;17258;52.560;13.046;2022-10-16T12:48:46;4.20;;;4.00;;
30466;SDS011;17258;52.560;13.046;2022-10-16T12:59:11;2.08;;;1.98;;
30466;SDS011;17258;52.560;13.046;2022-10-16T13:09:22;16.95;;;15.90;;
30466;SDS011;17258;52.560;13.046;2022-10-16T13:30:17;8.25;;;7.93;;
30466;SDS011;17258;52.560;13.046;2022-10-16T13:40:24;4.85;;;4.60;;
30466;SDS011;17258;52.560;13.046;2022-10-16T13:50:25;3.33;;;3.13;;
30466;SDS011;17258;52.560;13.046;2022-10-16T14:00:26;1.10;;;1.10;;
30466;SDS011;17258;52.560;13.046;2022-10-16T14:10:32;1.10;;;1.10;;
30466;SDS011;17258;52.560;13.046;2022-10-16T14:20:33;0.63;;;0.50;;
30466;SDS011;17258;52.560;13.046;2022-10-16T14:30:35;0.70;;;0.70;;
30466;SDS011;17258;52.560;13.046;2022-10-16T14:40:36;0.65;;;0.65;;
30466;SDS011;17258;52.560;13.046;2022-10-16T14:50:37;0.63;;;0.63;;
30466;SDS011;17258;52.560;13.046;2022-10-16T15:00:38;0.77;;;0.73;;
30466;SDS011;17258;52.560;13.046;2022-10-16T15:10:39;1.20;;;1.10;;
30466;SDS011;17258;52.560;13.046;2022-10-16T15:20:43;0.70;;;0.70;;
30466;SDS011;17258;52.560;13.046;2022-10-16T15:30:44;0.67;;;0.67;;
30466;SDS011;17258;52.560;13.046;2022-10-16T15:40:46;0.50;;;0.50;;
30466;SDS011;17258;52.560;13.046;2022-10-16T15:50:48;1.95;;;0.50;;
30466;SDS011;17258;52.560;13.046;2022-10-16T16:00:55;1.13;;;0.60;;
30466;SDS011;17258;52.560;13.046;2022-10-16T16:11:01;0.57;;;0.57;;
30466;SDS011;17258;52.560;13.046;2022-10-16T16:21:06;0.45;;;0.45;;
30466;SDS011;17258;52.560;13.046;2022-10-16T16:31:07;2.08;;;0.55;;
30466;SDS011;17258;52.560;13.046;2022-10-16T16:41:12;1.42;;;1.17;;
30466;SDS011;17258;52.560;13.046;2022-10-16T16:51:25;7.18;;;4.88;;
30466;SDS011;17258;52.560;13.046;2022-10-16T17:01:25;6.40;;;5.80;;
30466;SDS011;17258;52.560;13.046;2022-10-16T17:11:27;4.75;;;4.10;;
30466;SDS011;17258;52.560;13.046;2022-10-16T17:21:28;3.53;;;2.50;;
30466;SDS011;17258;52.560;13.046;2022-10-16T17:31:31;2.03;;;1.65;;
30466;SDS011;17258;52.560;13.046;2022-10-16T17:41:34;2.40;;;1.88;;
30466;SDS011;17258;52.560;13.046;2022-10-16T17:51:35;4.80;;;2.20;;
30466;SDS011;17258;52.560;13.046;2022-10-16T18:01:37;3.80;;;2.73;;
30466;SDS011;17258;52.560;13.046;2022-10-16T18:11:40;4.13;;;2.63;;
30466;SDS011;17258;52.560;13.046;2022-10-16T18:21:41;3.80;;;3.47;;
30466;SDS011;17258;52.560;13.046;2022-10-16T18:31:41;7.43;;;6.60;;
30466;SDS011;17258;52.560;13.046;2022-10-16T18:41:42;6.38;;;5.80;;
30466;SDS011;17258;52.560;13.046;2022-10-16T18:51:46;9.80;;;6.03;;
30466;SDS011;17258;52.560;13.046;2022-10-16T19:01:48;5.00;;;4.30;;
30466;SDS011;17258;52.560;13.046;2022-10-16T19:11:49;5.10;;;4.15;;
30466;SDS011;17258;52.560;13.046;2022-10-16T19:21:50;5.20;;;4.40;;
30466;SDS011;17258;52.560;13.046;2022-10-16T19:31:57;4.65;;;4.25;;
30466;SDS011;17258;52.560;13.046;2022-10-16T19:42:01;4.07;;;3.03;;
30466;SDS011;17258;52.560;13.046;2022-10-16T19:52:01;4.50;;;4.10;;
30466;SDS011;17258;52.560;13.046;2022-10-16T20:02:02;3.90;;;3.60;;
30466;SDS011;17258;52.560;13.046;2022-10-16T20:12:03;4.53;;;4.13;;
30466;SDS011;17258;52.560;13.046;2022-10-16T20:22:04;4.97;;;3.40;;
30466;SDS011;17258;52.560;13.046;2022-10-16T20:32:05;4.25;;;3.85;;
30466;SDS011;17258;52.560;13.046;2022-10-16T20:42:06;3.30;;;3.10;;
30466;SDS011;17258;52.560;13.046;2022-10-16T20:52:06;3.80;;;3.50;;
30466;SDS011;17258;52.560;13.046;2022-10-16T21:02:08;4.03;;;3.70;;
30466;SDS011;17258;52.560;13.046;2022-10-16T21:12:10;5.18;;;4.68;;
30466;SDS011;17258;52.560;13.046;2022-10-16T21:22:11;6.03;;;5.50;;
30466;SDS011;17258;52.560;13.046;2022-10-16T21:32:12;4.63;;;4.10;;
30466;SDS011;17258;52.560;13.046;2022-10-16T21:42:12;5.83;;;4.50;;
30466;SDS011;17258;52.560;13.046;2022-10-16T21:52:13;5.22;;;4.13;;
30466;SDS011;17258;52.560;13.046;2022-10-16T22:02:15;5.75;;;4.10;;
30466;SDS011;17258;52.560;13.046;2022-10-16T22:12:15;6.53;;;4.00;;
30466;SDS011;17258;52.560;13.046;2022-10-16T22:22:18;4.60;;;4.18;;
30466;SDS011;17258;52.560;13.046;2022-10-16T22:32:19;5.43;;;4.10;;
30466;SDS011;17258;52.560;13.046;2022-10-16T22:42:19;4.73;;;4.33;;
30466;SDS011;17258;52.560;13.046;2022-10-16T22:52:20;4.28;;;3.88;;
30466;SDS011;17258;52.560;13.046;2022-10-16T23:02:21;4.77;;;3.93;;
30466;SDS011;17258;52.560;13.046;2022-10-16T23:12:21;4.67;;;3.97;;
30466;SDS011;17258;52.560;13.046;2022-10-16T23:22:24;4.18;;;3.83;;
30466;SDS011;17258;52.560;13.046;2022-10-16T23:32:26;3.38;;;3.08;;
30466;SDS011;17258;52.560;13.046;2022-10-16T23:42:27;6.70;;;3.65;;
30466;SDS011;17258;52.560;13.046;2022-10-16T23:52:27;3.60;;;3.23;;
